createdAt,value
2022-11-05T00:01:50.195Z,15.39
2022-11-05T00:03:50.071Z,15.35
2022-11-05T00:05:50.047Z,15.32
2022-11-05T00:07:49.974Z,15.32
2022-11-05T00:09:49.994Z,15.33
2022-11-05T00:12:58.897Z,15.27
2022-11-05T00:14:58.849Z,15.29
2022-11-05T00:16:58.839Z,15.28
2022-11-05T00:18:58.894Z,15.28
2022-11-05T00:20:58.844Z,15.31
2022-11-05T00:22:58.814Z,15.32
2022-11-05T00:24:58.833Z,15.28
2022-11-05T00:26:58.847Z,15.28
2022-11-05T00:29:00.328Z,15.28
2022-11-05T00:31:00.303Z,15.34
2022-11-05T00:33:00.350Z,15.15
2022-11-05T00:35:00.313Z,15.28
2022-11-05T00:37:00.308Z,15.23
2022-11-05T00:39:00.334Z,15.31
2022-11-05T00:41:00.290Z,15.3
2022-11-05T00:43:21.014Z,15.22
2022-11-05T00:45:21.069Z,15.28
2022-11-05T00:47:21.047Z,15.3
2022-11-05T00:49:21.001Z,15.27
2022-11-05T00:51:21.038Z,15.24
2022-11-05T00:53:20.994Z,15.2
2022-11-05T00:55:20.986Z,15.12
2022-11-05T00:58:57.799Z,15.2
2022-11-05T01:00:57.893Z,15.26
2022-11-05T01:02:57.848Z,15.3
2022-11-05T01:04:57.774Z,15.23
2022-11-05T01:06:57.794Z,15.22
2022-11-05T01:08:57.799Z,15.23
2022-11-05T01:10:57.772Z,15.22
2022-11-05T01:14:09.430Z,15.21
2022-11-05T01:16:09.472Z,15.26
2022-11-05T01:18:09.425Z,15.25
2022-11-05T01:20:09.413Z,15.21
2022-11-05T01:22:09.426Z,15.29
2022-11-05T01:24:09.399Z,15.13
2022-11-05T01:26:09.411Z,15.04
2022-11-05T01:28:53.030Z,15.15
2022-11-05T01:30:52.909Z,15.11
2022-11-05T01:32:52.950Z,15.09
2022-11-05T01:34:53.080Z,14.94
2022-11-05T01:36:52.954Z,15
2022-11-05T01:38:52.904Z,15.03
2022-11-05T01:40:52.901Z,14.94
2022-11-05T01:44:12.002Z,14.63
2022-11-05T01:46:11.976Z,14.67
2022-11-05T01:48:12.013Z,14.73
2022-11-05T01:50:11.953Z,14.59
2022-11-05T01:52:11.986Z,14.52
2022-11-05T01:54:11.952Z,14.71
2022-11-05T01:56:11.979Z,14.47
2022-11-05T01:59:39.638Z,14.58
2022-11-05T02:01:39.718Z,14.62
2022-11-05T02:03:39.669Z,14.67
2022-11-05T02:05:39.594Z,14.71
2022-11-05T02:07:39.621Z,14.66
2022-11-05T02:09:39.650Z,14.68
2022-11-05T02:11:39.598Z,14.68
2022-11-05T02:15:03.645Z,14.65
2022-11-05T02:17:03.301Z,14.54
2022-11-05T02:19:03.545Z,14.58
2022-11-05T02:21:03.348Z,14.65
2022-11-05T02:23:03.326Z,14.59
2022-11-05T02:25:03.326Z,14.57
2022-11-05T02:27:03.305Z,14.48
2022-11-05T02:30:07.155Z,14.48
2022-11-05T02:32:07.154Z,14.51
2022-11-05T02:34:07.175Z,14.5
2022-11-05T02:36:07.142Z,14.52
2022-11-05T02:38:07.196Z,14.44
2022-11-05T02:40:07.143Z,14.4
2022-11-05T02:42:07.153Z,14.42
2022-11-05T02:45:00.087Z,14.39
2022-11-05T02:47:00.065Z,14.26
2022-11-05T02:49:00.124Z,14.41
2022-11-05T02:51:00.163Z,14.11
2022-11-05T02:53:00.117Z,14.22
2022-11-05T02:55:00.058Z,13.38
2022-11-05T02:57:00.086Z,13.93
2022-11-05T03:00:32.535Z,13.72
2022-11-05T03:02:32.697Z,13.88
2022-11-05T03:04:32.533Z,13.85
2022-11-05T03:06:32.541Z,14.06
2022-11-05T03:08:32.523Z,14.06
2022-11-05T03:10:32.558Z,13.81
2022-11-05T03:12:32.510Z,13.92
2022-11-05T03:15:37.299Z,13.94
2022-11-05T03:17:37.244Z,13.83
2022-11-05T03:19:37.249Z,13.21
2022-11-05T03:21:37.412Z,13.58
2022-11-05T03:23:37.240Z,13.77
2022-11-05T03:25:37.289Z,13.82
2022-11-05T03:27:37.243Z,13.91
2022-11-05T03:30:48.906Z,13.89
2022-11-05T03:32:48.947Z,13.97
2022-11-05T03:34:48.949Z,13.9
2022-11-05T03:36:48.961Z,13.94
2022-11-05T03:38:48.868Z,13.96
2022-11-05T03:40:48.908Z,13.91
2022-11-05T03:42:48.918Z,13.87
2022-11-05T03:45:37.177Z,13.98
2022-11-05T03:47:37.236Z,13.69
2022-11-05T03:49:37.208Z,13.66
2022-11-05T03:51:37.171Z,13.56
2022-11-05T03:53:37.208Z,12.95
2022-11-05T03:55:37.186Z,13.09
2022-11-05T03:57:37.232Z,13.42
2022-11-05T04:00:38.020Z,13.68
2022-11-05T04:02:38.135Z,13.73
2022-11-05T04:04:38.053Z,13.72
2022-11-05T04:06:38.029Z,13.58
2022-11-05T04:08:38.185Z,13.54
2022-11-05T04:10:38.019Z,13.7
2022-11-05T04:12:38.334Z,13.67
2022-11-05T04:15:31.012Z,13.71
2022-11-05T04:17:30.981Z,13.06
2022-11-05T04:19:31.230Z,13.36
2022-11-05T04:21:30.988Z,13.48
2022-11-05T04:23:30.979Z,13.63
2022-11-05T04:25:30.999Z,13.64
2022-11-05T04:27:31.001Z,13.73
2022-11-05T04:29:31.010Z,13.74
2022-11-05T04:31:34.661Z,13.85
2022-11-05T04:33:34.581Z,13.84
2022-11-05T04:35:34.605Z,13.86
2022-11-05T04:37:34.549Z,13.79
2022-11-05T04:39:34.554Z,13.69
2022-11-05T04:41:34.634Z,13.79
2022-11-05T04:43:34.580Z,13.86
2022-11-05T04:46:18.456Z,13.81
2022-11-05T04:48:18.404Z,13.61
2022-11-05T04:50:18.464Z,13.66
2022-11-05T04:52:18.400Z,13.8
2022-11-05T04:54:18.405Z,13.9
2022-11-05T04:56:18.468Z,13.68
2022-11-05T04:58:18.385Z,13.43
2022-11-05T05:01:01.373Z,13.69
2022-11-05T05:03:01.314Z,13.71
2022-11-05T05:05:01.249Z,13.66
2022-11-05T05:07:01.244Z,13.4
2022-11-05T05:09:01.236Z,13.69
2022-11-05T05:11:01.242Z,13.64
2022-11-05T05:13:01.238Z,13.59
2022-11-05T05:15:01.238Z,13.43
2022-11-05T05:16:39.682Z,13.68
2022-11-05T05:18:43.601Z,13.36
2022-11-05T05:20:39.598Z,13.49
2022-11-05T05:22:39.606Z,13.44
2022-11-05T05:24:39.606Z,13.4
2022-11-05T05:26:39.614Z,13.33
2022-11-05T05:28:39.628Z,13.5
2022-11-05T05:31:52.917Z,13.29
2022-11-05T05:33:52.905Z,13.46
2022-11-05T05:35:52.918Z,13.62
2022-11-05T05:37:52.887Z,13.64
2022-11-05T05:39:52.877Z,13.69
2022-11-05T05:41:52.900Z,13.68
2022-11-05T05:43:52.840Z,13.85
2022-11-05T05:46:58.213Z,13.44
2022-11-05T05:48:58.061Z,13.87
2022-11-05T05:50:58.058Z,13.75
2022-11-05T05:52:58.056Z,13.85
2022-11-05T05:54:58.070Z,13.26
2022-11-05T05:56:58.063Z,13.04
2022-11-05T05:58:58.127Z,13.43
2022-11-05T06:01:48.425Z,13.66
2022-11-05T06:03:48.325Z,13.84
2022-11-05T06:05:48.340Z,14.05
2022-11-05T06:07:48.293Z,13.83
2022-11-05T06:09:48.449Z,13.56
2022-11-05T06:11:48.297Z,14.05
2022-11-05T06:13:48.300Z,14.48
2022-11-05T06:16:53.637Z,14.88
2022-11-05T06:18:53.600Z,14.93
2022-11-05T06:20:53.571Z,15.02
2022-11-05T06:22:53.591Z,15.11
2022-11-05T06:24:53.651Z,15.3
2022-11-05T06:26:53.578Z,15.35
2022-11-05T06:28:53.587Z,15.49
2022-11-05T06:30:53.570Z,15.37
2022-11-05T06:31:59.415Z,15.54
2022-11-05T06:33:59.462Z,15.7
2022-11-05T06:35:59.407Z,15.91
2022-11-05T06:37:59.409Z,16.27
2022-11-05T06:39:59.456Z,16.56
2022-11-05T06:43:59.408Z,16.84
2022-11-05T06:45:59.544Z,16.8
2022-11-05T06:47:19.463Z,16.83
2022-11-05T06:49:19.510Z,16.91
2022-11-05T06:51:19.471Z,17.09
2022-11-05T06:53:19.464Z,17.22
2022-11-05T06:55:19.475Z,17.22
2022-11-05T06:57:19.450Z,17.51
2022-11-05T06:59:19.500Z,17.77
2022-11-05T07:02:26.025Z,17.77
2022-11-05T07:04:25.912Z,17.85
2022-11-05T07:06:25.914Z,18.09
2022-11-05T07:08:25.881Z,18.17
2022-11-05T07:10:25.913Z,18.36
2022-11-05T07:12:25.920Z,18.58
2022-11-05T07:14:25.877Z,18.74
2022-11-05T07:16:25.879Z,18.84
2022-11-05T07:17:52.636Z,19.04
2022-11-05T07:19:52.716Z,18.26
2022-11-05T07:21:52.695Z,18.23
2022-11-05T07:23:52.686Z,18.26
2022-11-05T07:25:52.642Z,18.5
2022-11-05T07:27:52.669Z,18.23
2022-11-05T07:29:52.666Z,18.79
2022-11-05T07:33:03.354Z,18.71
2022-11-05T07:35:03.420Z,18.6
2022-11-05T07:37:03.352Z,18.61
2022-11-05T07:39:03.347Z,18.34
2022-11-05T07:41:03.368Z,18.52
2022-11-05T07:43:03.403Z,18.59
2022-11-05T07:45:03.344Z,18.73
2022-11-05T07:48:27.103Z,18.83
2022-11-05T07:50:27.212Z,18.73
2022-11-05T07:52:27.108Z,16.8
2022-11-05T07:54:27.109Z,17.4
2022-11-05T07:56:27.102Z,17.58
2022-11-05T07:58:27.123Z,18.1
2022-11-05T08:00:27.113Z,18.59
2022-11-05T08:03:31.610Z,18.71
2022-11-05T08:05:31.438Z,18.74
2022-11-05T08:07:31.418Z,18.3
2022-11-05T08:09:31.450Z,18.4
2022-11-05T08:11:31.405Z,18.27
2022-11-05T08:13:31.471Z,18.52
2022-11-05T08:15:31.451Z,18.09
2022-11-05T08:18:31.688Z,17.41
2022-11-05T08:20:31.667Z,17.76
2022-11-05T08:22:31.657Z,18.35
2022-11-05T08:24:31.695Z,18.73
2022-11-05T08:26:31.652Z,17.65
2022-11-05T08:28:31.641Z,18.3
2022-11-05T08:30:31.640Z,18.38
2022-11-05T08:33:51.254Z,18.68
2022-11-05T08:35:51.278Z,18.64
2022-11-05T08:37:51.297Z,18.84
2022-11-05T08:39:51.260Z,18.71
2022-11-05T08:41:51.256Z,18.65
2022-11-05T08:43:51.298Z,18.61
2022-11-05T08:45:51.243Z,18.48
2022-11-05T08:48:59.690Z,18.38
2022-11-05T08:50:59.633Z,18.46
2022-11-05T08:52:59.689Z,18.75
2022-11-05T08:54:59.621Z,18.87
2022-11-05T08:56:59.622Z,18.68
2022-11-05T08:58:59.686Z,18.73
2022-11-05T09:01:04.640Z,18.73
2022-11-05T09:04:32.385Z,18.98
2022-11-05T09:06:32.340Z,18.75
2022-11-05T09:08:32.393Z,18.82
2022-11-05T09:10:32.338Z,19.01
2022-11-05T09:12:32.339Z,19.18
2022-11-05T09:14:32.366Z,18.87
2022-11-05T09:16:32.351Z,18.98
2022-11-05T09:19:19.283Z,18.94
2022-11-05T09:21:19.292Z,19.18
2022-11-05T09:23:19.281Z,19.31
2022-11-05T09:25:19.302Z,19.27
2022-11-05T09:27:19.295Z,18.99
2022-11-05T09:29:19.305Z,19.13
2022-11-05T09:31:19.284Z,18.23
2022-11-05T09:34:36.692Z,18.36
2022-11-05T09:36:36.718Z,18.4
2022-11-05T09:38:36.690Z,18.59
2022-11-05T09:40:36.721Z,18.23
2022-11-05T09:42:36.732Z,18.12
2022-11-05T09:44:36.714Z,17.11
2022-11-05T09:46:36.707Z,17.37
2022-11-05T09:49:25.560Z,17.6
2022-11-05T09:51:25.596Z,18.31
2022-11-05T09:53:25.622Z,18.25
2022-11-05T09:55:25.543Z,18.23
2022-11-05T09:57:25.567Z,18.3
2022-11-05T09:59:25.552Z,18.23
2022-11-05T10:01:25.681Z,18.03
2022-11-05T10:05:09.345Z,17.83
2022-11-05T10:07:04.552Z,18.5
2022-11-05T10:09:04.374Z,17.57
2022-11-05T10:11:04.406Z,18.18
2022-11-05T10:13:04.535Z,17.7
2022-11-05T10:15:04.268Z,18.05
2022-11-05T10:17:04.273Z,18.27
2022-11-05T10:20:19.905Z,18.81
2022-11-05T10:22:19.920Z,18.68
2022-11-05T10:24:19.906Z,18.31
2022-11-05T10:26:19.936Z,18.35
2022-11-05T10:28:19.956Z,18.82
2022-11-05T10:30:19.943Z,19.08
2022-11-05T10:32:19.900Z,18.96
2022-11-05T10:35:21.892Z,19.46
2022-11-05T10:37:21.859Z,19.13
2022-11-05T10:39:21.891Z,18.82
2022-11-05T10:41:21.843Z,19.36
2022-11-05T10:43:21.842Z,19.66
2022-11-05T10:45:21.885Z,19.91
2022-11-05T10:47:21.896Z,19.67
2022-11-05T10:50:10.543Z,19.39
2022-11-05T10:52:10.538Z,19.75
2022-11-05T10:54:10.502Z,19.93
2022-11-05T10:56:10.529Z,19.97
2022-11-05T10:58:10.517Z,19.75
2022-11-05T11:00:10.497Z,19.77
2022-11-05T11:02:10.756Z,18.4
2022-11-05T11:04:56.604Z,19.03
2022-11-05T11:06:56.582Z,18.71
2022-11-05T11:08:56.580Z,19.04
2022-11-05T11:10:56.570Z,18.67
2022-11-05T11:12:56.627Z,18.71
2022-11-05T11:14:56.610Z,19.22
2022-11-05T11:16:56.554Z,19.66
2022-11-05T11:18:56.600Z,19.61
2022-11-05T11:20:11.417Z,19.63
2022-11-05T11:22:11.437Z,19.4
2022-11-05T11:24:11.459Z,19.22
2022-11-05T11:26:11.399Z,18.89
2022-11-05T11:28:11.443Z,19.42
2022-11-05T11:30:11.392Z,18.78
2022-11-05T11:32:11.440Z,19.13
2022-11-05T11:35:16.179Z,19.37
2022-11-05T11:37:19.312Z,19.35
2022-11-05T11:39:16.123Z,19.32
2022-11-05T11:41:16.130Z,19.6
2022-11-05T11:43:16.115Z,19.6
2022-11-05T11:45:16.124Z,19.33
2022-11-05T11:47:16.168Z,19.32
2022-11-05T11:49:16.159Z,19.56
2022-11-05T11:51:08.505Z,18.95
2022-11-05T11:53:08.895Z,19.29
2022-11-05T11:55:08.890Z,18.64
2022-11-05T11:57:12.809Z,19.03
2022-11-05T11:59:08.313Z,19.44
2022-11-05T12:01:08.353Z,19.31
2022-11-05T12:03:08.382Z,19.41
2022-11-05T12:06:02.356Z,18.69
2022-11-05T12:08:02.444Z,19.2
2022-11-05T12:10:02.356Z,19.34
2022-11-05T12:12:02.337Z,19.42
2022-11-05T12:14:02.386Z,19.14
2022-11-05T12:16:02.480Z,18.88
2022-11-05T12:18:02.725Z,18.81
2022-11-05T12:21:24.987Z,18.85
2022-11-05T12:23:16.198Z,18.98
2022-11-05T12:25:16.180Z,19.07
2022-11-05T12:27:16.322Z,18.89
2022-11-05T12:29:19.055Z,19.08
2022-11-05T12:31:16.174Z,19.16
2022-11-05T12:33:16.660Z,19.16
2022-11-05T12:36:31.773Z,18.77
2022-11-05T12:38:31.746Z,18.46
2022-11-05T12:40:31.724Z,18.35
2022-11-05T12:42:31.848Z,18.81
2022-11-05T12:44:31.768Z,18.95
2022-11-05T12:46:31.734Z,18.48
2022-11-05T12:48:36.820Z,18.83
2022-11-05T12:51:20.456Z,18.34
2022-11-05T12:53:20.479Z,18.83
2022-11-05T12:55:20.449Z,19.04
2022-11-05T12:57:20.438Z,18.48
2022-11-05T12:59:20.472Z,18.76
2022-11-05T13:01:20.525Z,19.08
2022-11-05T13:03:20.553Z,19.08
2022-11-05T13:06:29.955Z,18.94
2022-11-05T13:08:30.011Z,18.68
2022-11-05T13:10:30.000Z,18.81
2022-11-05T13:12:29.984Z,19.17
2022-11-05T13:14:30.023Z,19.26
2022-11-05T13:16:30.035Z,19.06
2022-11-05T13:18:29.996Z,18.79
2022-11-05T13:22:09.879Z,18.54
2022-11-05T13:24:09.999Z,18.5
2022-11-05T13:26:10.051Z,18.55
2022-11-05T13:28:10.020Z,18.4
2022-11-05T13:30:09.981Z,18.46
2022-11-05T13:32:09.909Z,18.35
2022-11-05T13:34:09.917Z,18.06
2022-11-05T13:37:01.646Z,18.28
2022-11-05T13:39:01.371Z,18.39
2022-11-05T13:41:01.369Z,18.42
2022-11-05T13:43:01.404Z,18.32
2022-11-05T13:45:01.404Z,18.05
2022-11-05T13:47:01.366Z,18.09
2022-11-05T13:49:01.354Z,18.07
2022-11-05T13:52:30.812Z,18.06
2022-11-05T13:54:30.730Z,18.22
2022-11-05T13:56:30.687Z,18.01
2022-11-05T13:58:30.707Z,18.09
2022-11-05T14:00:30.680Z,18.12
2022-11-05T14:02:30.860Z,18.02
2022-11-05T14:04:30.662Z,17.82
2022-11-05T14:07:10.222Z,17.82
2022-11-05T14:09:10.097Z,17.42
2022-11-05T14:11:10.182Z,17.74
2022-11-05T14:13:10.474Z,17.82
2022-11-05T14:15:10.129Z,17.57
2022-11-05T14:17:10.495Z,17.28
2022-11-05T14:19:10.094Z,17.57
2022-11-05T14:22:14.122Z,17.4
2022-11-05T14:24:14.057Z,17.43
2022-11-05T14:26:14.133Z,17.53
2022-11-05T14:28:14.090Z,17.8
2022-11-05T14:30:14.180Z,17.33
2022-11-05T14:32:14.106Z,17.49
2022-11-05T14:34:14.115Z,17.59
2022-11-05T14:37:36.516Z,17.15
2022-11-05T14:39:36.448Z,17.5
2022-11-05T14:41:36.463Z,17.64
2022-11-05T14:43:36.741Z,17.56
2022-11-05T14:45:36.716Z,17.28
2022-11-05T14:47:36.812Z,17.43
2022-11-05T14:49:36.681Z,17.43
2022-11-05T14:52:25.202Z,17.4
2022-11-05T14:54:25.085Z,17.25
2022-11-05T14:56:25.080Z,17.22
2022-11-05T14:58:25.101Z,17.11
2022-11-05T15:00:25.173Z,17.21
2022-11-05T15:02:25.235Z,17.1
2022-11-05T15:04:25.264Z,17.02
2022-11-05T15:06:25.096Z,17
2022-11-05T15:08:15.126Z,16.96
2022-11-05T15:10:15.135Z,17
2022-11-05T15:12:15.095Z,16.92
2022-11-05T15:14:15.117Z,16.75
2022-11-05T15:16:15.118Z,16.8
2022-11-05T15:18:15.331Z,16.58
2022-11-05T15:20:15.091Z,16.72
2022-11-05T15:22:51.540Z,16.62
2022-11-05T15:24:51.440Z,16.65
2022-11-05T15:26:51.461Z,16.73
2022-11-05T15:28:51.483Z,16.63
2022-11-05T15:30:51.517Z,16.52
2022-11-05T15:32:51.442Z,16.43
2022-11-05T15:34:51.479Z,16.51
2022-11-05T15:38:09.020Z,16.42
2022-11-05T15:40:08.595Z,16.41
2022-11-05T15:42:08.513Z,16.45
2022-11-05T15:44:08.496Z,16.4
2022-11-05T15:46:08.500Z,16.32
2022-11-05T15:48:08.573Z,16.21
2022-11-05T15:50:13.160Z,16.33
2022-11-05T15:53:27.709Z,16.33
2022-11-05T15:55:04.793Z,16.27
2022-11-05T15:57:04.665Z,16.23
2022-11-05T15:59:04.607Z,16.24
2022-11-05T16:01:04.624Z,16.18
2022-11-05T16:03:04.638Z,16.28
2022-11-05T16:05:04.685Z,16.21
2022-11-05T16:07:04.674Z,16.24
2022-11-05T16:08:49.932Z,16.22
2022-11-05T16:10:49.968Z,16.22
2022-11-05T16:12:49.958Z,16.21
2022-11-05T16:14:49.982Z,16.13
2022-11-05T16:16:49.914Z,16.09
2022-11-05T16:18:49.933Z,16.02
2022-11-05T16:20:49.965Z,16.1
2022-11-05T16:23:52.007Z,15.99
2022-11-05T16:25:51.980Z,15.96
2022-11-05T16:27:51.986Z,15.98
2022-11-05T16:29:51.999Z,16
2022-11-05T16:31:51.972Z,15.95
2022-11-05T16:33:51.994Z,15.97
2022-11-05T16:35:51.998Z,15.95
2022-11-05T16:38:45.741Z,15.92
2022-11-05T16:40:47.032Z,15.92
2022-11-05T16:42:45.748Z,15.97
2022-11-05T16:44:45.795Z,15.89
2022-11-05T16:46:45.777Z,15.87
2022-11-05T16:48:45.753Z,15.82
2022-11-05T16:50:45.807Z,15.88
2022-11-05T16:54:27.774Z,15.8
2022-11-05T16:56:27.824Z,15.7
2022-11-05T16:58:27.904Z,15.82
2022-11-05T17:00:27.785Z,15.84
2022-11-05T17:02:27.953Z,15.75
2022-11-05T17:04:27.783Z,15.74
2022-11-05T17:06:27.778Z,15.71
2022-11-05T17:09:21.085Z,15.66
2022-11-05T17:11:21.049Z,15.56
2022-11-05T17:13:21.085Z,15.66
2022-11-05T17:15:21.053Z,15.64
2022-11-05T17:17:21.098Z,15.47
2022-11-05T17:19:21.036Z,15.51
2022-11-05T17:21:21.038Z,15.1
2022-11-05T17:23:57.875Z,15.4
2022-11-05T17:25:57.868Z,15.1
2022-11-05T17:27:57.902Z,14.93
2022-11-05T17:29:58.120Z,14.72
2022-11-05T17:31:57.985Z,14.54
2022-11-05T17:33:58.042Z,14.69
2022-11-05T17:35:57.953Z,14.87
2022-11-05T17:37:57.905Z,14.88
2022-11-05T17:39:31.934Z,14.71
2022-11-05T17:41:30.954Z,14.92
2022-11-05T17:43:30.721Z,14.99
2022-11-05T17:45:30.957Z,14.92
2022-11-05T17:47:31.062Z,14.97
2022-11-05T17:49:30.719Z,14.73
2022-11-05T17:51:30.961Z,14.93
2022-11-05T17:54:43.168Z,14.8
2022-11-05T17:56:44.587Z,14.96
2022-11-05T17:58:43.124Z,14.99
2022-11-05T18:00:43.254Z,14.77
2022-11-05T18:02:43.204Z,14.78
2022-11-05T18:04:43.135Z,14.72
2022-11-05T18:06:43.118Z,14.65
2022-11-05T18:09:43.945Z,14.56
2022-11-05T18:11:43.970Z,14.63
2022-11-05T18:13:43.917Z,14.66
2022-11-05T18:15:43.966Z,14.53
2022-11-05T18:17:44.051Z,14.56
2022-11-05T18:19:43.936Z,14.36
2022-11-05T18:21:43.953Z,14.54
2022-11-05T18:24:36.841Z,14.49
2022-11-05T18:26:36.527Z,14.27
2022-11-05T18:28:36.752Z,14.39
2022-11-05T18:30:36.794Z,14.36
2022-11-05T18:32:36.594Z,14.42
2022-11-05T18:34:36.593Z,14.49
2022-11-05T18:36:36.725Z,14.43
2022-11-05T18:38:36.522Z,14.43
2022-11-05T18:40:27.510Z,14.38
2022-11-05T18:42:27.509Z,14.34
2022-11-05T18:44:27.372Z,14.45
2022-11-05T18:46:51.569Z,14.34
2022-11-05T18:48:27.557Z,14.35
2022-11-05T18:50:27.160Z,14.24
2022-11-05T18:52:27.255Z,14.09
2022-11-05T18:55:42.078Z,14.14
2022-11-05T18:57:42.217Z,14.21
2022-11-05T18:59:42.122Z,14.16
2022-11-05T19:01:42.226Z,14.2
2022-11-05T19:03:42.172Z,14.23
2022-11-05T19:05:42.125Z,14.2
2022-11-05T19:07:42.080Z,14.12
2022-11-05T19:10:08.064Z,14.18
2022-11-05T19:12:07.993Z,14.15
2022-11-05T19:14:08.039Z,14.17
2022-11-05T19:16:07.991Z,14.02
2022-11-05T19:18:08.061Z,14
2022-11-05T19:20:09.073Z,14.03
2022-11-05T19:22:08.051Z,14
2022-11-05T19:24:07.978Z,13.92
2022-11-05T19:25:57.633Z,14.05
2022-11-05T19:27:57.676Z,13.95
2022-11-05T19:29:57.621Z,13.94
2022-11-05T19:31:57.641Z,13.94
2022-11-05T19:33:57.669Z,14.02
2022-11-05T19:35:57.657Z,13.94
2022-11-05T19:37:57.726Z,13.96
2022-11-05T19:41:01.192Z,13.86
2022-11-05T19:43:01.130Z,13.8
2022-11-05T19:45:16.959Z,13.81
2022-11-05T19:47:01.290Z,13.8
2022-11-05T19:49:01.319Z,13.75
2022-11-05T19:51:01.159Z,13.77
2022-11-05T19:53:01.178Z,13.68
2022-11-05T19:56:30.968Z,13.48
2022-11-05T19:58:30.535Z,13.46
2022-11-05T20:00:30.589Z,13.51
2022-11-05T20:02:31.171Z,13.53
2022-11-05T20:04:30.547Z,13.64
2022-11-05T20:06:30.577Z,13.52
2022-11-05T20:08:30.534Z,13.56
2022-11-05T20:10:43.307Z,13.46
2022-11-05T20:12:43.284Z,13.53
2022-11-05T20:14:43.296Z,13.5
2022-11-05T20:16:43.331Z,13.59
2022-11-05T20:18:43.332Z,13.59
2022-11-05T20:20:43.278Z,13.64
2022-11-05T20:22:43.292Z,13.72
2022-11-05T20:24:43.306Z,13.84
2022-11-05T20:25:53.806Z,13.83
2022-11-05T20:27:53.784Z,13.89
2022-11-05T20:29:53.786Z,13.83
2022-11-05T20:31:53.822Z,13.77
2022-11-05T20:33:53.804Z,13.72
2022-11-05T20:35:53.776Z,13.7
2022-11-05T20:37:54.431Z,13.71
2022-11-05T20:39:53.830Z,13.75
2022-11-05T20:41:07.151Z,13.76
2022-11-05T20:43:07.153Z,13.92
2022-11-05T20:45:07.208Z,13.87
2022-11-05T20:47:07.159Z,13.95
2022-11-05T20:49:07.169Z,14.01
2022-11-05T20:51:07.146Z,14.12
2022-11-05T20:53:07.390Z,14.03
2022-11-05T20:55:07.149Z,13.79
2022-11-05T20:56:27.476Z,13.67
2022-11-05T20:58:27.450Z,13.56
2022-11-05T21:00:27.522Z,13.52
2022-11-05T21:02:27.621Z,13.57
2022-11-05T21:04:27.499Z,13.64
2022-11-05T21:06:27.424Z,13.63
2022-11-05T21:08:27.433Z,13.63
2022-11-05T21:11:42.658Z,13.55
2022-11-05T21:13:42.600Z,13.55
2022-11-05T21:15:42.623Z,13.6
2022-11-05T21:17:42.609Z,13.68
2022-11-05T21:19:42.609Z,13.59
2022-11-05T21:21:42.647Z,13.49
2022-11-05T21:23:42.641Z,13.29
2022-11-05T21:26:48.757Z,13.23
2022-11-05T21:28:48.715Z,13.3
2022-11-05T21:30:48.761Z,13.3
2022-11-05T21:32:48.743Z,13.18
2022-11-05T21:34:48.886Z,13.24
2022-11-05T21:36:48.729Z,13.33
2022-11-05T21:38:48.792Z,13.3
2022-11-05T21:41:56.575Z,13.35
2022-11-05T21:43:56.697Z,13.24
2022-11-05T21:45:56.746Z,12.22
2022-11-05T21:47:56.696Z,12.34
2022-11-05T21:49:56.564Z,12.53
2022-11-05T21:51:56.551Z,12.57
2022-11-05T21:53:56.594Z,12.67
2022-11-05T21:57:09.764Z,12.64
2022-11-05T21:59:05.113Z,12.74
2022-11-05T22:01:05.135Z,12.65
2022-11-05T22:03:05.106Z,12.62
2022-11-05T22:05:05.128Z,12.7
2022-11-05T22:07:05.085Z,12.71
2022-11-05T22:09:05.125Z,12.67
2022-11-05T22:12:31.220Z,12.64
2022-11-05T22:14:31.197Z,12.57
2022-11-05T22:16:31.169Z,12.56
2022-11-05T22:18:31.474Z,12.53
2022-11-05T22:20:31.221Z,12.55
2022-11-05T22:22:31.207Z,12.53
2022-11-05T22:24:31.219Z,12.6
2022-11-05T22:27:38.856Z,12.66
2022-11-05T22:29:38.904Z,12.66
2022-11-05T22:31:38.811Z,12.57
2022-11-05T22:33:38.795Z,10.63
2022-11-05T22:35:38.815Z,11.43
2022-11-05T22:37:38.859Z,11.59
2022-11-05T22:39:38.807Z,11.78
2022-11-05T22:42:28.568Z,11.95
2022-11-05T22:44:28.697Z,12.06
2022-11-05T22:46:28.565Z,12.07
2022-11-05T22:48:28.585Z,11.62
2022-11-05T22:50:28.744Z,11.64
2022-11-05T22:52:28.837Z,11.82
2022-11-05T22:54:28.968Z,11.65
2022-11-05T22:56:28.447Z,11.4
2022-11-05T22:58:07.954Z,11.68
2022-11-05T23:00:07.861Z,11.92
2022-11-05T23:02:09.949Z,12.04
2022-11-05T23:04:08.158Z,12.1
2022-11-05T23:06:07.935Z,12.02
2022-11-05T23:08:07.857Z,12
2022-11-05T23:10:07.860Z,12.04
2022-11-05T23:13:39.662Z,12.05
2022-11-05T23:15:39.258Z,12.09
2022-11-05T23:17:39.270Z,12.09
2022-11-05T23:19:39.274Z,12.14
2022-11-05T23:21:39.182Z,12.2
2022-11-05T23:23:39.287Z,12.21
2022-11-05T23:25:39.220Z,12.16
2022-11-05T23:28:29.556Z,12.14
2022-11-05T23:30:29.500Z,12.07
2022-11-05T23:32:29.625Z,12.21
2022-11-05T23:34:29.539Z,12.25
2022-11-05T23:36:29.511Z,12.25
2022-11-05T23:38:29.799Z,12.31
2022-11-05T23:40:29.504Z,12.3
2022-11-05T23:43:14.924Z,12.3
2022-11-05T23:45:15.096Z,12.31
2022-11-05T23:47:14.972Z,12.08
2022-11-05T23:49:14.941Z,12.11
2022-11-05T23:51:14.952Z,12.1
2022-11-05T23:53:15.004Z,12.14
2022-11-05T23:55:14.899Z,12.22
2022-11-05T23:59:07.722Z,12.2
